Time;durP1;ratioP1;P1;durP2;ratioP2;P2;SDS_P1;SDS_P2;PMS_P1;PMS_P2;Temp;Humidity;BMP_temperature;BMP_pressure;BME280_temperature;BME280_humidity;BME280_pressure;Samples;Min_cycle;Max_cycle;Signal;HPM_P1;HPM_P2
2023/04/14 00:00:07;;;;;;;2.65;1.30;;;;;;;;;;5082397;28;20118;-84
2023/04/14 00:02:34;;;;;;;4.63;1.30;;;;;;;;;;5083092;28;20073;-83
2023/04/14 00:05:00;;;;;;;1.88;1.05;;;;;;;;;;5082601;28;20539;-85
2023/04/14 00:07:25;;;;;;;3.92;1.42;;;;;;;;;;5117592;28;20032;-85
2023/04/14 00:09:51;;;;;;;2.25;1.40;;;;;;;;;;5100090;28;20160;-86
2023/04/14 00:12:16;;;;;;;2.90;1.30;;;;;;;;;;5065689;28;20390;-86
2023/04/14 00:14:44;;;;;;;1.85;1.23;;;;;;;;;;5117714;28;20102;-86
2023/04/14 00:17:10;;;;;;;1.80;1.20;;;;;;;;;;5099851;28;20100;-85
2023/04/14 00:19:35;;;;;;;2.60;1.20;;;;;;;;;;5117588;28;20063;-84
2023/04/14 00:22:00;;;;;;;1.77;1.17;;;;;;;;;;5092415;28;20036;-84
2023/04/14 00:24:26;;;;;;;2.38;1.23;;;;;;;;;;5089136;28;20028;-84
2023/04/14 00:26:51;;;;;;;1.80;1.10;;;;;;;;;;5117063;28;20100;-85
2023/04/14 00:29:17;;;;;;;2.25;1.30;;;;;;;;;;5098951;28;20035;-85
2023/04/14 00:31:42;;;;;;;1.60;1.20;;;;;;;;;;5117192;28;20551;-85
2023/04/14 00:34:07;;;;;;;3.78;1.23;;;;;;;;;;5117505;28;20027;-86
2023/04/14 00:36:33;;;;;;;1.85;1.30;;;;;;;;;;5099058;28;20391;-86
2023/04/14 00:38:59;;;;;;;2.25;1.30;;;;;;;;;;5098655;28;20034;-86
2023/04/14 00:41:25;;;;;;;1.85;1.20;;;;;;;;;;5098795;28;20027;-86
2023/04/14 00:43:54;;;;;;;2.13;1.30;;;;;;;;;;5081501;28;20032;-84
2023/04/14 00:46:20;;;;;;;2.58;1.60;;;;;;;;;;5099291;28;20070;-85
2023/04/14 00:48:45;;;;;;;2.88;1.25;;;;;;;;;;5083080;28;20094;-85
2023/04/14 00:51:11;;;;;;;2.47;1.20;;;;;;;;;;5098835;28;20065;-85
2023/04/14 00:53:37;;;;;;;2.95;1.30;;;;;;;;;;5099321;28;20477;-84
2023/04/14 00:56:03;;;;;;;2.22;1.20;;;;;;;;;;5078298;28;20036;-84
2023/04/14 00:58:29;;;;;;;2.85;1.40;;;;;;;;;;5079267;28;20059;-85
2023/04/14 01:00:55;;;;;;;1.25;1.10;;;;;;;;;;5099004;28;20436;-85
2023/04/14 01:03:23;;;;;;;2.08;1.23;;;;;;;;;;5097565;28;20032;-85
2023/04/14 01:05:48;;;;;;;3.97;1.50;;;;;;;;;;5116436;28;20055;-85
2023/04/14 01:08:14;;;;;;;3.08;1.25;;;;;;;;;;5098236;28;20543;-84
2023/04/14 01:11:00;;;;;;;2.42;1.40;;;;;;;;;;5098701;28;20067;-84
2023/04/14 01:13:50;;;;;;;2.00;1.30;;;;;;;;;;5098464;28;20023;-84
2023/04/14 01:16:27;;;;;;;1.63;1.20;;;;;;;;;;5116285;28;20023;-84
2023/04/14 01:19:29;;;;;;;2.25;1.27;;;;;;;;;;5098251;28;20048;-87
2023/04/14 01:21:56;;;;;;;3.55;1.50;;;;;;;;;;5098211;28;20031;-85
2023/04/14 01:24:37;;;;;;;2.38;1.45;;;;;;;;;;5098030;28;20111;-85
2023/04/14 01:27:33;;;;;;;2.53;1.27;;;;;;;;;;5116446;28;20026;-84
2023/04/14 01:30:09;;;;;;;3.70;1.10;;;;;;;;;;5097692;28;20076;-84
2023/04/14 01:32:42;;;;;;;2.38;1.25;;;;;;;;;;5097935;28;20474;-83
2023/04/14 01:35:12;;;;;;;4.00;1.30;;;;;;;;;;5081071;28;20028;-84
2023/04/14 01:37:46;;;;;;;1.77;1.20;;;;;;;;;;5097785;28;20307;-83
2023/04/14 01:40:15;;;;;;;1.70;1.30;;;;;;;;;;5077682;28;20028;-84
2023/04/14 01:42:46;;;;;;;3.20;1.20;;;;;;;;;;5085969;28;20062;-84
2023/04/14 01:45:21;;;;;;;2.60;1.50;;;;;;;;;;5094440;28;20024;-84
2023/04/14 01:47:47;;;;;;;2.75;1.50;;;;;;;;;;5094430;28;20379;-84
2023/04/14 01:50:13;;;;;;;1.52;1.13;;;;;;;;;;5077021;28;20042;-84
2023/04/14 01:52:42;;;;;;;1.95;1.30;;;;;;;;;;5094278;28;20040;-84
2023/04/14 01:55:08;;;;;;;2.65;1.27;;;;;;;;;;5094018;28;20032;-84
2023/04/14 01:57:35;;;;;;;2.20;1.17;;;;;;;;;;5114911;28;20486;-85
2023/04/14 02:00:02;;;;;;;1.60;1.27;;;;;;;;;;5097198;28;20380;-84
2023/04/14 02:02:28;;;;;;;1.73;1.23;;;;;;;;;;5097428;28;20493;-84
2023/04/14 02:04:56;;;;;;;2.42;1.52;;;;;;;;;;5079985;28;20153;-85
2023/04/14 02:07:22;;;;;;;2.17;1.27;;;;;;;;;;5097388;28;20028;-82
2023/04/14 02:09:48;;;;;;;1.60;1.20;;;;;;;;;;5115276;28;20060;-83
2023/04/14 02:12:15;;;;;;;1.75;1.20;;;;;;;;;;5096924;28;20398;-82
2023/04/14 02:14:41;;;;;;;2.00;1.40;;;;;;;;;;5096849;28;20024;-82
2023/04/14 02:17:08;;;;;;;1.27;1.10;;;;;;;;;;5080085;28;20058;-82
2023/04/14 02:19:34;;;;;;;1.95;1.20;;;;;;;;;;5096817;28;20130;-82
2023/04/14 02:22:00;;;;;;;3.28;1.40;;;;;;;;;;5115057;28;20059;-82
2023/04/14 02:24:25;;;;;;;2.20;1.38;;;;;;;;;;5096745;28;20031;-82
2023/04/14 02:26:58;;;;;;;2.42;1.27;;;;;;;;;;5096609;28;20028;-82
2023/04/14 02:29:24;;;;;;;2.50;1.20;;;;;;;;;;5096843;28;20023;-82
2023/04/14 02:32:02;;;;;;;1.65;1.20;;;;;;;;;;5096641;28;20103;-82
2023/04/14 02:34:32;;;;;;;8.25;1.70;;;;;;;;;;5079856;28;20083;-83
2023/04/14 02:37:02;;;;;;;1.35;1.10;;;;;;;;;;5096659;28;20031;-82
2023/04/14 02:39:39;;;;;;;1.73;1.38;;;;;;;;;;5096742;28;20038;-83
2023/04/14 02:42:12;;;;;;;1.05;1.00;;;;;;;;;;5114825;28;20354;-84
2023/04/14 02:44:50;;;;;;;1.23;1.13;;;;;;;;;;5097271;28;20062;-84
2023/04/14 02:47:23;;;;;;;1.80;1.40;;;;;;;;;;5079445;28;20110;-85
2023/04/14 02:49:49;;;;;;;2.90;1.60;;;;;;;;;;5096313;28;20027;-84
2023/04/14 02:52:16;;;;;;;3.33;1.30;;;;;;;;;;5097122;28;20134;-85
2023/04/14 02:54:42;;;;;;;1.20;1.10;;;;;;;;;;5079354;28;20081;-86
2023/04/14 02:57:08;;;;;;;1.65;1.15;;;;;;;;;;5096356;28;20030;-86
2023/04/14 02:59:34;;;;;;;2.00;1.25;;;;;;;;;;5114523;28;20037;-85
2023/04/14 03:02:04;;;;;;;1.60;1.17;;;;;;;;;;5096434;28;20426;-86
2023/04/14 03:04:33;;;;;;;2.55;1.10;;;;;;;;;;5114362;28;20047;-85
2023/04/14 03:06:59;;;;;;;3.97;1.30;;;;;;;;;;5096110;28;20040;-84
2023/04/14 03:09:26;;;;;;;1.58;1.25;;;;;;;;;;5114395;28;20119;-86
2023/04/14 03:11:54;;;;;;;1.58;1.30;;;;;;;;;;5095892;28;20019;-85
2023/04/14 03:14:20;;;;;;;2.45;1.38;;;;;;;;;;5095949;28;20445;-87
2023/04/14 03:16:53;;;;;;;1.67;1.17;;;;;;;;;;5078919;28;20027;-85
2023/04/14 03:19:22;;;;;;;2.28;1.40;;;;;;;;;;5079057;28;20066;-85
2023/04/14 03:21:53;;;;;;;2.28;1.30;;;;;;;;;;5114304;28;20039;-84
2023/04/14 03:24:23;;;;;;;2.42;1.52;;;;;;;;;;5096020;28;20051;-84
2023/04/14 03:26:51;;;;;;;1.67;1.30;;;;;;;;;;5078599;28;20028;-85
2023/04/14 03:29:19;;;;;;;1.83;1.15;;;;;;;;;;5095607;28;20022;-85
2023/04/14 03:31:46;;;;;;;1.60;1.20;;;;;;;;;;5095521;28;20027;-85
2023/04/14 03:34:14;;;;;;;2.88;1.30;;;;;;;;;;5095729;28;20027;-84
2023/04/14 03:36:40;;;;;;;1.75;1.20;;;;;;;;;;5078849;28;20038;-84
2023/04/14 03:39:10;;;;;;;1.73;1.25;;;;;;;;;;5113704;28;20047;-84
2023/04/14 03:41:37;;;;;;;1.55;1.15;;;;;;;;;;5095574;28;20024;-83
2023/04/14 03:44:03;;;;;;;2.08;1.30;;;;;;;;;;5113958;28;20024;-84
2023/04/14 03:46:29;;;;;;;2.08;1.60;;;;;;;;;;5095813;28;20081;-84
2023/04/14 03:48:57;;;;;;;1.65;1.20;;;;;;;;;;5113665;28;20027;-84
2023/04/14 03:51:26;;;;;;;5.07;1.60;;;;;;;;;;5112308;28;20035;-85
2023/04/14 03:53:53;;;;;;;2.75;1.17;;;;;;;;;;5108027;28;20081;-84
2023/04/14 03:56:18;;;;;;;2.90;1.40;;;;;;;;;;5095967;28;20030;-84
2023/04/14 03:58:49;;;;;;;3.55;1.60;;;;;;;;;;5078552;28;20020;-85
2023/04/14 04:01:15;;;;;;;1.98;1.38;;;;;;;;;;5059441;28;20059;-84
2023/04/14 04:03:41;;;;;;;2.83;1.48;;;;;;;;;;5075243;28;20056;-85
2023/04/14 04:06:07;;;;;;;3.63;1.40;;;;;;;;;;5087318;28;20082;-85
2023/04/14 04:08:33;;;;;;;3.20;1.50;;;;;;;;;;5094667;28;20491;-86
2023/04/14 04:10:59;;;;;;;2.33;1.42;;;;;;;;;;5058739;28;20059;-84
2023/04/14 04:13:25;;;;;;;5.57;2.30;;;;;;;;;;5095861;28;20028;-83
2023/04/14 04:15:51;;;;;;;3.95;2.30;;;;;;;;;;5095569;28;20037;-84
2023/04/14 04:18:17;;;;;;;8.02;2.40;;;;;;;;;;5095822;28;20487;-83
2023/04/14 04:20:43;;;;;;;4.20;2.17;;;;;;;;;;5078423;28;20073;-82
2023/04/14 04:23:10;;;;;;;5.97;2.30;;;;;;;;;;5113950;28;20107;-83
2023/04/14 04:25:36;;;;;;;5.38;2.30;;;;;;;;;;5082160;28;20054;-83
2023/04/14 04:28:02;;;;;;;8.40;2.67;;;;;;;;;;5102736;28;20031;-85
2023/04/14 04:30:29;;;;;;;7.47;2.30;;;;;;;;;;5097518;28;20047;-82
2023/04/14 04:32:54;;;;;;;4.70;1.80;;;;;;;;;;5103578;28;20027;-87
2023/04/14 04:35:21;;;;;;;5.57;2.40;;;;;;;;;;5122664;28;20053;-90
2023/04/14 04:37:47;;;;;;;7.20;2.80;;;;;;;;;;5083385;28;20064;-92
2023/04/14 04:40:12;;;;;;;5.55;2.55;;;;;;;;;;5133922;28;20024;-91
2023/04/14 04:42:42;;;;;;;5.82;2.53;;;;;;;;;;5107723;28;20129;-93
2023/04/14 04:45:08;;;;;;;10.55;2.95;;;;;;;;;;5070209;28;20028;-93
2023/04/14 04:47:33;;;;;;;6.57;2.13;;;;;;;;;;5106028;28;20466;-88
2023/04/14 04:49:59;;;;;;;5.75;2.25;;;;;;;;;;5120698;28;20080;-89
2023/04/14 04:52:24;;;;;;;6.65;2.35;;;;;;;;;;5086058;28;20028;-88
2023/04/14 04:54:51;;;;;;;7.15;2.70;;;;;;;;;;5074948;28;20035;-86
2023/04/14 04:57:20;;;;;;;4.65;2.45;;;;;;;;;;5130469;28;20023;-85
2023/04/14 04:59:46;;;;;;;9.70;2.58;;;;;;;;;;5110214;28;20027;-83
2023/04/14 05:02:11;;;;;;;9.68;2.35;;;;;;;;;;5100126;28;20394;-83
2023/04/14 05:04:37;;;;;;;6.85;2.45;;;;;;;;;;5120544;28;20131;-88
2023/04/14 05:07:02;;;;;;;7.57;2.28;;;;;;;;;;5108709;28;20032;-85
2023/04/14 05:09:28;;;;;;;8.35;2.40;;;;;;;;;;5117627;28;20032;-85
2023/04/14 05:11:53;;;;;;;4.93;1.92;;;;;;;;;;5078774;28;20101;-85
2023/04/14 05:14:19;;;;;;;2.97;1.80;;;;;;;;;;5096055;28;20034;-86
2023/04/14 05:16:44;;;;;;;6.57;2.17;;;;;;;;;;5099067;28;20106;-88
2023/04/14 05:19:10;;;;;;;9.45;2.67;;;;;;;;;;5081557;28;20035;-88
2023/04/14 05:21:35;;;;;;;6.43;2.38;;;;;;;;;;5064804;28;20150;-88
2023/04/14 05:24:01;;;;;;;8.43;2.47;;;;;;;;;;5098684;28;20054;-86
2023/04/14 05:26:26;;;;;;;4.78;2.10;;;;;;;;;;5098526;28;20060;-85
2023/04/14 05:28:51;;;;;;;7.85;2.30;;;;;;;;;;5098692;28;20030;-85
2023/04/14 05:31:17;;;;;;;6.78;2.55;;;;;;;;;;5098277;28;20042;-86
2023/04/14 05:33:42;;;;;;;3.22;2.10;;;;;;;;;;5081505;28;20096;-87
2023/04/14 05:36:08;;;;;;;4.20;1.98;;;;;;;;;;5116570;28;20107;-85
2023/04/14 05:38:38;;;;;;;3.95;2.10;;;;;;;;;;5098431;28;20107;-85
2023/04/14 05:41:04;;;;;;;3.28;2.00;;;;;;;;;;5098641;28;20393;-86
2023/04/14 05:43:30;;;;;;;9.05;2.78;;;;;;;;;;5080313;28;20102;-85
2023/04/14 05:45:57;;;;;;;5.35;2.60;;;;;;;;;;5116454;28;20024;-86
2023/04/14 05:48:23;;;;;;;6.10;2.33;;;;;;;;;;5118142;28;20531;-86
2023/04/14 05:50:49;;;;;;;6.03;2.20;;;;;;;;;;5081489;28;20123;-85
2023/04/14 05:53:14;;;;;;;4.35;1.92;;;;;;;;;;5116461;28;20102;-86
2023/04/14 05:55:40;;;;;;;3.80;2.28;;;;;;;;;;5097922;28;20027;-85
2023/04/14 05:58:06;;;;;;;4.50;2.10;;;;;;;;;;5122558;28;20024;-85
2023/04/14 06:00:31;;;;;;;4.38;1.98;;;;;;;;;;5109816;28;20035;-85
2023/04/14 06:02:57;;;;;;;4.72;2.10;;;;;;;;;;5132608;28;20024;-85
2023/04/14 06:05:23;;;;;;;3.10;1.83;;;;;;;;;;5111754;28;20051;-86
2023/04/14 06:07:48;;;;;;;4.13;1.90;;;;;;;;;;5120217;28;20055;-85
2023/04/14 06:10:14;;;;;;;4.32;1.88;;;;;;;;;;5116426;28;20051;-85
2023/04/14 06:12:39;;;;;;;2.65;2.00;;;;;;;;;;5116537;28;20023;-85
2023/04/14 06:15:05;;;;;;;3.13;1.92;;;;;;;;;;5098630;28;20035;-85
2023/04/14 06:17:34;;;;;;;6.75;1.80;;;;;;;;;;5098429;28;20016;-85
2023/04/14 06:20:00;;;;;;;5.28;2.08;;;;;;;;;;5098583;28;20035;-86
2023/04/14 06:22:28;;;;;;;3.05;1.67;;;;;;;;;;5101036;28;20031;-86
2023/04/14 06:24:57;;;;;;;3.08;1.63;;;;;;;;;;5118785;28;20359;-85
2023/04/14 06:27:23;;;;;;;7.00;1.90;;;;;;;;;;5099592;28;20030;-86
2023/04/14 06:29:50;;;;;;;4.93;1.90;;;;;;;;;;5098722;28;20428;-84
2023/04/14 06:32:16;;;;;;;2.92;1.95;;;;;;;;;;5115809;28;20024;-84
2023/04/14 06:34:41;;;;;;;3.47;1.80;;;;;;;;;;5115376;28;20028;-83
2023/04/14 06:37:07;;;;;;;2.78;1.70;;;;;;;;;;5077006;28;20092;-84
2023/04/14 06:39:32;;;;;;;3.00;1.90;;;;;;;;;;5061841;28;20032;-83
2023/04/14 06:41:58;;;;;;;3.45;1.95;;;;;;;;;;5097182;28;20032;-84
2023/04/14 06:44:23;;;;;;;4.78;1.83;;;;;;;;;;5096973;28;20110;-84
2023/04/14 06:46:48;;;;;;;4.63;1.90;;;;;;;;;;5097162;28;20050;-85
2023/04/14 06:49:16;;;;;;;3.45;1.80;;;;;;;;;;5114941;28;20478;-85
2023/04/14 06:51:41;;;;;;;3.50;1.80;;;;;;;;;;5097323;28;20123;-85
2023/04/14 06:54:07;;;;;;;3.88;1.70;;;;;;;;;;5096616;28;20058;-85
2023/04/14 06:56:32;;;;;;;4.53;1.95;;;;;;;;;;5114655;28;20033;-83
2023/04/14 06:58:57;;;;;;;4.03;2.10;;;;;;;;;;5101543;28;20493;-82
2023/04/14 07:01:23;;;;;;;3.08;1.75;;;;;;;;;;5097336;28;20057;-82
2023/04/14 07:03:48;;;;;;;3.33;1.77;;;;;;;;;;5076182;28;20063;-83
2023/04/14 07:06:15;;;;;;;3.33;2.00;;;;;;;;;;5089632;28;20093;-85
2023/04/14 07:08:41;;;;;;;2.67;1.58;;;;;;;;;;5097348;28;20056;-84
2023/04/14 07:11:09;;;;;;;3.63;1.75;;;;;;;;;;5096664;28;20033;-84
2023/04/14 07:13:35;;;;;;;5.68;2.20;;;;;;;;;;5079419;28;20118;-85
2023/04/14 07:16:01;;;;;;;2.92;1.90;;;;;;;;;;5096668;28;20028;-83
2023/04/14 07:18:27;;;;;;;2.60;1.58;;;;;;;;;;5078279;28;20542;-84
2023/04/14 07:20:53;;;;;;;3.10;1.70;;;;;;;;;;5114450;28;20114;-84
2023/04/14 07:23:18;;;;;;;4.40;2.10;;;;;;;;;;5115260;28;20042;-83
2023/04/14 07:25:49;;;;;;;2.85;1.60;;;;;;;;;;5115072;28;20428;-83
2023/04/14 07:28:14;;;;;;;3.58;1.95;;;;;;;;;;5078236;28;20028;-83
2023/04/14 07:30:40;;;;;;;3.78;1.60;;;;;;;;;;5097183;28;20050;-85
2023/04/14 07:33:05;;;;;;;4.72;1.88;;;;;;;;;;5062618;28;20147;-84
2023/04/14 07:35:31;;;;;;;2.88;1.85;;;;;;;;;;5078643;28;20036;-85
2023/04/14 07:37:56;;;;;;;4.07;1.58;;;;;;;;;;5114278;28;20028;-85
2023/04/14 07:40:22;;;;;;;3.70;1.90;;;;;;;;;;5079045;28;20031;-85
2023/04/14 07:42:47;;;;;;;2.63;1.60;;;;;;;;;;5114175;28;20482;-83
2023/04/14 07:45:12;;;;;;;4.57;1.80;;;;;;;;;;5114152;28;20058;-83
2023/04/14 07:47:38;;;;;;;2.72;1.95;;;;;;;;;;5113876;28;20035;-83
2023/04/14 07:50:04;;;;;;;5.38;2.00;;;;;;;;;;5096060;28;20122;-83
2023/04/14 07:52:30;;;;;;;5.75;1.60;;;;;;;;;;5079596;28;20417;-83
2023/04/14 07:54:55;;;;;;;3.03;1.50;;;;;;;;;;5114073;28;20047;-83
2023/04/14 07:57:21;;;;;;;4.90;1.95;;;;;;;;;;5095927;28;20390;-82
2023/04/14 07:59:46;;;;;;;7.63;2.00;;;;;;;;;;5095956;28;20428;-83
2023/04/14 08:02:12;;;;;;;2.90;1.60;;;;;;;;;;5095740;28;20020;-81
2023/04/14 08:04:37;;;;;;;4.25;2.00;;;;;;;;;;5113994;28;20052;-83
2023/04/14 08:07:02;;;;;;;3.17;1.70;;;;;;;;;;5114310;28;20042;-82
2023/04/14 08:09:28;;;;;;;2.70;1.60;;;;;;;;;;5114083;28;20023;-82
2023/04/14 08:11:53;;;;;;;4.25;1.65;;;;;;;;;;5075746;28;20111;-83
2023/04/14 08:14:19;;;;;;;3.28;1.60;;;;;;;;;;5114738;28;20027;-83
2023/04/14 08:16:44;;;;;;;2.67;1.70;;;;;;;;;;5082750;28;20035;-83
2023/04/14 08:19:10;;;;;;;3.63;1.75;;;;;;;;;;5099803;28;20027;-83
2023/04/14 08:21:35;;;;;;;2.75;1.58;;;;;;;;;;5099764;28;20032;-83
2023/04/14 08:24:00;;;;;;;2.83;1.63;;;;;;;;;;5117842;28;20024;-83
2023/04/14 08:26:26;;;;;;;2.78;1.45;;;;;;;;;;5082715;28;20024;-83
2023/04/14 08:28:52;;;;;;;3.20;1.70;;;;;;;;;;5100350;28;20054;-84
2023/04/14 08:31:17;;;;;;;2.42;1.40;;;;;;;;;;5099879;28;20042;-84
2023/04/14 08:33:43;;;;;;;3.45;1.40;;;;;;;;;;5099776;28;20020;-83
2023/04/14 08:36:08;;;;;;;3.38;1.50;;;;;;;;;;5099251;28;20081;-84
2023/04/14 08:38:34;;;;;;;2.20;1.63;;;;;;;;;;5099397;28;20027;-83
2023/04/14 08:41:00;;;;;;;2.65;1.38;;;;;;;;;;5117492;28;20462;-83
2023/04/14 08:43:25;;;;;;;4.00;1.55;;;;;;;;;;5099089;28;20032;-83
2023/04/14 08:45:52;;;;;;;2.38;1.20;;;;;;;;;;5098970;28;20035;-83
2023/04/14 08:48:21;;;;;;;3.28;1.45;;;;;;;;;;5079180;28;20028;-82
2023/04/14 08:51:05;;;;;;;1.90;1.33;;;;;;;;;;5082198;28;20058;-83
2023/04/14 08:53:31;;;;;;;3.13;1.58;;;;;;;;;;5117660;28;20028;-83
2023/04/14 08:56:03;;;;;;;3.10;1.30;;;;;;;;;;5117201;28;20037;-83
2023/04/14 08:58:28;;;;;;;2.13;1.48;;;;;;;;;;5099368;28;20517;-83
2023/04/14 09:00:54;;;;;;;2.00;1.20;;;;;;;;;;5122034;28;20027;-83
2023/04/14 09:03:20;;;;;;;2.63;1.20;;;;;;;;;;5105151;28;20019;-83
2023/04/14 09:05:46;;;;;;;1.98;1.27;;;;;;;;;;5118012;28;20056;-82
2023/04/14 09:08:11;;;;;;;4.18;1.45;;;;;;;;;;5078470;28;20027;-82
2023/04/14 09:10:37;;;;;;;2.67;1.23;;;;;;;;;;5098479;28;20032;-83
2023/04/14 09:13:03;;;;;;;1.88;1.45;;;;;;;;;;5116938;28;20520;-83
2023/04/14 09:15:29;;;;;;;2.22;1.13;;;;;;;;;;5116669;28;20059;-83
2023/04/14 09:17:55;;;;;;;2.75;1.33;;;;;;;;;;5117179;28;20462;-82
2023/04/14 09:20:21;;;;;;;2.92;1.30;;;;;;;;;;5116878;28;20110;-84
2023/04/14 09:22:46;;;;;;;2.30;1.20;;;;;;;;;;5099296;28;20040;-84
2023/04/14 09:25:12;;;;;;;2.47;1.33;;;;;;;;;;5115888;28;20023;-85
2023/04/14 09:27:38;;;;;;;1.92;1.35;;;;;;;;;;5081453;28;20028;-84
2023/04/14 09:30:03;;;;;;;2.20;1.30;;;;;;;;;;5098821;28;20036;-84
2023/04/14 09:32:29;;;;;;;2.78;1.35;;;;;;;;;;5098599;28;20032;-83
2023/04/14 09:34:56;;;;;;;1.73;1.10;;;;;;;;;;5078491;28;20475;-84
2023/04/14 09:37:21;;;;;;;3.10;1.33;;;;;;;;;;5114124;28;20478;-84
2023/04/14 09:39:51;;;;;;;1.48;1.00;;;;;;;;;;5098629;28;20060;-84
2023/04/14 09:42:17;;;;;;;1.80;1.10;;;;;;;;;;5116675;28;20055;-84
2023/04/14 09:44:53;;;;;;;1.73;1.00;;;;;;;;;;5081574;28;20053;-83
2023/04/14 09:47:20;;;;;;;2.70;1.08;;;;;;;;;;5118428;28;20027;-84
2023/04/14 09:50:14;;;;;;;2.72;1.23;;;;;;;;;;5100002;28;20045;-84
2023/04/14 09:52:43;;;;;;;1.80;1.05;;;;;;;;;;5097061;28;20101;-83
2023/04/14 09:55:13;;;;;;;2.38;0.90;;;;;;;;;;5117077;28;20046;-83
2023/04/14 09:57:43;;;;;;;1.48;1.00;;;;;;;;;;5099290;28;20019;-84
2023/04/14 10:00:15;;;;;;;1.23;1.02;;;;;;;;;;5097918;28;20027;-84
2023/04/14 10:02:54;;;;;;;1.58;1.00;;;;;;;;;;5116239;28;20027;-83
2023/04/14 10:05:30;;;;;;;1.65;1.00;;;;;;;;;;5080675;28;20470;-83
2023/04/14 10:08:04;;;;;;;2.35;1.27;;;;;;;;;;5097635;28;20019;-84
2023/04/14 10:10:29;;;;;;;2.53;1.20;;;;;;;;;;5097601;28;20025;-84
2023/04/14 10:12:55;;;;;;;2.80;1.05;;;;;;;;;;5097532;28;20035;-84
2023/04/14 10:15:20;;;;;;;2.85;1.45;;;;;;;;;;5080518;28;20079;-81
2023/04/14 10:17:46;;;;;;;1.67;1.10;;;;;;;;;;5097466;28;20028;-84
2023/04/14 10:20:11;;;;;;;3.53;1.30;;;;;;;;;;5097465;28;20042;-84
2023/04/14 10:22:37;;;;;;;2.92;1.20;;;;;;;;;;5097857;28;20088;-84
2023/04/14 10:25:04;;;;;;;2.97;1.15;;;;;;;;;;5097257;28;20449;-83
2023/04/14 10:27:30;;;;;;;2.22;1.00;;;;;;;;;;5115396;28;20023;-84
2023/04/14 10:29:56;;;;;;;1.13;0.93;;;;;;;;;;5097611;28;20031;-85
2023/04/14 10:32:23;;;;;;;2.10;1.20;;;;;;;;;;5080267;28;20074;-85
2023/04/14 10:35:08;;;;;;;1.88;1.00;;;;;;;;;;5097188;28;20454;-85
2023/04/14 10:37:34;;;;;;;2.05;0.93;;;;;;;;;;5084654;28;20027;-85
2023/04/14 10:40:05;;;;;;;1.80;1.15;;;;;;;;;;5105116;28;20485;-86
2023/04/14 10:42:53;;;;;;;0.80;0.80;;;;;;;;;;5080190;28;20024;-86
2023/04/14 10:45:19;;;;;;;2.40;1.00;;;;;;;;;;5097153;28;20088;-86
2023/04/14 10:47:45;;;;;;;2.90;1.10;;;;;;;;;;5115563;28;20031;-86
2023/04/14 10:50:12;;;;;;;1.63;1.00;;;;;;;;;;5096887;28;20027;-86
2023/04/14 10:52:38;;;;;;;1.92;0.90;;;;;;;;;;5080068;28;20035;-86
2023/04/14 10:55:08;;;;;;;2.00;1.00;;;;;;;;;;5079804;28;20062;-87
2023/04/14 10:57:41;;;;;;;2.25;1.15;;;;;;;;;;5097251;28;20024;-86
2023/04/14 11:00:27;;;;;;;1.83;1.00;;;;;;;;;;5115229;28;20111;-86
2023/04/14 11:03:09;;;;;;;1.20;0.73;;;;;;;;;;5096711;28;20375;-85
2023/04/14 11:05:35;;;;;;;1.90;1.20;;;;;;;;;;5103245;28;20039;-86
2023/04/14 11:08:23;;;;;;;3.50;1.02;;;;;;;;;;5104071;28;20024;-86
2023/04/14 11:10:51;;;;;;;1.50;0.93;;;;;;;;;;5079818;28;20036;-85
2023/04/14 11:13:16;;;;;;;1.77;0.90;;;;;;;;;;5076881;28;20028;-85
2023/04/14 11:15:42;;;;;;;8.95;1.00;;;;;;;;;;5079844;28;20057;-85
2023/04/14 11:18:18;;;;;;;2.45;1.10;;;;;;;;;;5096715;28;20105;-85
2023/04/14 11:20:43;;;;;;;2.13;0.90;;;;;;;;;;5079445;28;20024;-85
2023/04/14 11:23:12;;;;;;;1.88;1.10;;;;;;;;;;5115135;28;20055;-85
2023/04/14 11:25:39;;;;;;;3.42;1.15;;;;;;;;;;5079566;28;20035;-85
2023/04/14 11:28:04;;;;;;;3.55;1.02;;;;;;;;;;5096773;28;20169;-85
2023/04/14 11:30:30;;;;;;;4.85;1.17;;;;;;;;;;5078458;28;20437;-86
2023/04/14 11:32:57;;;;;;;3.95;1.30;;;;;;;;;;5097730;28;20396;-88
2023/04/14 11:35:24;;;;;;;3.50;1.00;;;;;;;;;;5110365;28;20027;-89
2023/04/14 11:37:58;;;;;;;2.35;1.00;;;;;;;;;;5092706;28;20024;-86
2023/04/14 11:40:25;;;;;;;;;;;;;;;;;;5108551;28;20470;-82
2023/04/14 11:42:57;;;;;;;2.83;1.00;;;;;;;;;;5121491;28;19907;-81
2023/04/14 11:45:32;;;;;;;1.33;0.90;;;;;;;;;;5103510;28;20076;-80
2023/04/14 11:48:05;;;;;;;6.18;1.58;;;;;;;;;;5108051;28;20068;-85
2023/04/14 11:50:32;;;;;;;3.45;1.10;;;;;;;;;;5064924;28;20031;-84
2023/04/14 11:52:58;;;;;;;5.80;1.05;;;;;;;;;;5063961;28;20039;-84
2023/04/14 11:55:28;;;;;;;3.33;1.15;;;;;;;;;;5102486;28;20036;-84
2023/04/14 11:57:54;;;;;;;3.38;1.30;;;;;;;;;;5109623;28;20083;-92
2023/04/14 12:00:20;;;;;;;2.47;1.02;;;;;;;;;;5109232;28;20051;-84
2023/04/14 12:02:45;;;;;;;3.67;1.10;;;;;;;;;;5065383;28;20024;-85
2023/04/14 12:05:15;;;;;;;4.03;1.25;;;;;;;;;;5063131;28;20052;-86
2023/04/14 12:07:41;;;;;;;3.50;1.20;;;;;;;;;;5083152;28;20135;-86
2023/04/14 12:10:07;;;;;;;3.45;1.55;;;;;;;;;;5083010;28;20364;-88
2023/04/14 12:12:33;;;;;;;5.10;1.20;;;;;;;;;;5081363;28;20039;-85
2023/04/14 12:14:58;;;;;;;2.10;1.23;;;;;;;;;;5076367;28;20090;-82
2023/04/14 12:17:24;;;;;;;10.90;1.67;;;;;;;;;;5072873;28;20483;-85
2023/04/14 12:19:49;;;;;;;9.63;1.10;;;;;;;;;;5075591;28;20444;-89
2023/04/14 12:22:26;;;;;;;7.32;1.10;;;;;;;;;;5060198;28;20500;-88
2023/04/14 12:24:53;;;;;;;4.25;1.08;;;;;;;;;;5043981;28;20078;-90
2023/04/14 12:27:20;;;;;;;1.98;1.00;;;;;;;;;;5073006;28;20032;-86
2023/04/14 12:29:47;;;;;;;2.58;0.85;;;;;;;;;;5072992;28;20029;-89
2023/04/14 12:32:13;;;;;;;3.28;1.23;;;;;;;;;;5074043;28;20021;-87
2023/04/14 12:34:39;;;;;;;6.07;1.35;;;;;;;;;;5072571;28;20387;-88
2023/04/14 12:37:09;;;;;;;3.53;1.10;;;;;;;;;;5074269;28;20039;-88
2023/04/14 12:39:57;;;;;;;3.42;1.00;;;;;;;;;;5072889;28;20027;-90
2023/04/14 12:42:23;;;;;;;3.13;1.27;;;;;;;;;;5073764;28;20079;-89
2023/04/14 12:44:56;;;;;;;5.10;1.40;;;;;;;;;;5063994;28;20128;-91
2023/04/14 12:47:34;;;;;;;3.17;1.23;;;;;;;;;;5067109;28;20479;-86
2023/04/14 12:50:02;;;;;;;9.68;1.48;;;;;;;;;;5080142;28;20074;-87
2023/04/14 12:52:38;;;;;;;1.52;0.82;;;;;;;;;;5074602;28;20033;-87
2023/04/14 12:55:05;;;;;;;4.50;1.10;;;;;;;;;;5055547;28;20471;-84
2023/04/14 12:57:31;;;;;;;8.23;2.10;;;;;;;;;;5073430;28;20032;-86
2023/04/14 12:59:58;;;;;;;3.30;1.38;;;;;;;;;;5080606;28;20031;-86
2023/04/14 13:02:24;;;;;;;7.43;1.88;;;;;;;;;;5083689;28;20016;-85
2023/04/14 13:04:49;;;;;;;15.48;1.70;;;;;;;;;;5079692;28;20055;-84
2023/04/14 13:07:14;;;;;;;4.18;1.48;;;;;;;;;;5085505;28;20040;-84
2023/04/14 13:09:42;;;;;;;8.95;1.50;;;;;;;;;;5088738;28;20040;-84
2023/04/14 13:12:08;;;;;;;3.88;1.30;;;;;;;;;;5078439;28;20120;-84
2023/04/14 13:14:33;;;;;;;5.93;1.60;;;;;;;;;;5075652;28;20057;-83
2023/04/14 13:16:58;;;;;;;5.95;1.50;;;;;;;;;;5076848;28;20406;-83
2023/04/14 13:19:24;;;;;;;3.60;1.33;;;;;;;;;;5060439;28;20051;-86
2023/04/14 13:21:49;;;;;;;2.95;1.40;;;;;;;;;;5077996;28;20059;-85
2023/04/14 13:24:15;;;;;;;3.33;1.08;;;;;;;;;;5076817;28;20048;-84
2023/04/14 13:26:40;;;;;;;1.33;0.85;;;;;;;;;;5078054;28;20033;-85
2023/04/14 13:29:06;;;;;;;4.57;1.30;;;;;;;;;;5076208;28;20166;-85
2023/04/14 13:31:31;;;;;;;3.85;1.30;;;;;;;;;;5074952;28;20032;-85
2023/04/14 13:33:57;;;;;;;7.10;1.85;;;;;;;;;;5076056;28;20554;-85
2023/04/14 13:36:23;;;;;;;4.43;1.17;;;;;;;;;;5075294;28;20039;-85
2023/04/14 13:38:48;;;;;;;2.33;1.00;;;;;;;;;;5058700;28;20040;-86
2023/04/14 13:41:14;;;;;;;4.47;1.48;;;;;;;;;;5076597;28;20032;-85
2023/04/14 13:43:40;;;;;;;2.58;1.20;;;;;;;;;;5060862;28;20463;-86
2023/04/14 13:46:06;;;;;;;1.40;1.10;;;;;;;;;;5075618;28;20044;-86
2023/04/14 13:48:31;;;;;;;2.20;1.05;;;;;;;;;;5082872;28;20036;-86
2023/04/14 13:50:58;;;;;;;5.00;1.13;;;;;;;;;;5060952;28;20028;-84
2023/04/14 13:53:24;;;;;;;1.45;1.00;;;;;;;;;;5076314;28;20032;-84
2023/04/14 13:55:50;;;;;;;2.40;0.90;;;;;;;;;;5057888;28;20047;-84
2023/04/14 13:58:15;;;;;;;2.20;1.08;;;;;;;;;;5057927;28;20029;-83
2023/04/14 14:00:41;;;;;;;2.45;1.00;;;;;;;;;;5057689;28;20457;-84
2023/04/14 14:03:06;;;;;;;5.22;1.48;;;;;;;;;;5057582;28;20025;-85
2023/04/14 14:05:31;;;;;;;5.32;1.35;;;;;;;;;;5085885;28;20105;-85
2023/04/14 14:07:57;;;;;;;4.07;1.10;;;;;;;;;;5095918;28;20089;-84
2023/04/14 14:10:23;;;;;;;2.75;1.10;;;;;;;;;;5096098;28;20484;-85
2023/04/14 14:12:48;;;;;;;2.13;0.90;;;;;;;;;;5077461;28;20115;-85
2023/04/14 14:15:13;;;;;;;5.35;1.23;;;;;;;;;;5077178;28;20123;-85
2023/04/14 14:17:39;;;;;;;3.25;1.10;;;;;;;;;;5061012;28;20351;-86
2023/04/14 14:20:06;;;;;;;2.35;1.00;;;;;;;;;;5077542;28;20056;-86
2023/04/14 14:22:31;;;;;;;1.30;0.90;;;;;;;;;;5095477;28;20030;-86
2023/04/14 14:24:57;;;;;;;2.17;1.10;;;;;;;;;;5077359;28;20114;-86
2023/04/14 14:27:22;;;;;;;4.20;1.00;;;;;;;;;;5060475;28;20036;-86
2023/04/14 14:29:48;;;;;;;2.17;1.02;;;;;;;;;;5077085;28;20088;-86
2023/04/14 14:32:14;;;;;;;2.47;0.80;;;;;;;;;;5060460;28;20043;-86
2023/04/14 14:34:40;;;;;;;2.00;1.15;;;;;;;;;;5077501;28;20028;-85
2023/04/14 14:37:05;;;;;;;2.40;0.80;;;;;;;;;;5077322;28;20164;-87
2023/04/14 14:39:31;;;;;;;1.08;0.80;;;;;;;;;;5077403;28;20074;-85
2023/04/14 14:41:57;;;;;;;2.53;0.90;;;;;;;;;;5095070;28;20036;-86
2023/04/14 14:44:22;;;;;;;3.90;1.05;;;;;;;;;;5076932;28;20028;-84